Time;durP1;ratioP1;P1;durP2;ratioP2;P2;SDS_P1;SDS_P2;PMS_P1;PMS_P2;Temp;Humidity;BMP_temperature;BMP_pressure;BME280_temperature;BME280_humidity;BME280_pressure;Samples;Min_cycle;Max_cycle;Signal;HPM_P1;HPM_P2
2022/11/19 00:01:18;;;;;;;91.55;37.42;;;;;;;;;;5008151;28;20033;-77
2022/11/19 00:03:44;;;;;;;86.13;36.78;;;;;;;;;;5010056;28;20105;-76
2022/11/19 00:06:16;;;;;;;83.22;36.03;;;;;;;;;;4999555;28;20125;-76
2022/11/19 00:08:42;;;;;;;87.82;37.55;;;;;;;;;;5002525;28;20033;-76
2022/11/19 00:11:08;;;;;;;90.70;37.47;;;;;;;;;;5011546;28;20498;-76
2022/11/19 00:13:34;;;;;;;83.03;36.80;;;;;;;;;;5028054;28;20018;-76
2022/11/19 00:16:10;;;;;;;90.38;36.72;;;;;;;;;;5008582;28;20056;-75
2022/11/19 00:18:37;;;;;;;79.95;37.13;;;;;;;;;;5004201;28;20022;-76
2022/11/19 00:21:04;;;;;;;93.60;37.38;;;;;;;;;;5006535;28;20045;-75
2022/11/19 00:23:30;;;;;;;87.85;36.53;;;;;;;;;;5007990;28;20030;-76
2022/11/19 00:25:56;;;;;;;79.95;34.65;;;;;;;;;;5007363;28;20062;-75
2022/11/19 00:28:22;;;;;;;85.50;35.03;;;;;;;;;;5006144;28;20023;-76
2022/11/19 00:30:48;;;;;;;78.40;33.10;;;;;;;;;;5012487;28;20055;-76
2022/11/19 00:33:14;;;;;;;79.07;33.75;;;;;;;;;;5002062;28;20473;-75
2022/11/19 00:35:40;;;;;;;82.88;33.15;;;;;;;;;;5011405;28;20105;-75
2022/11/19 00:38:06;;;;;;;78.47;33.03;;;;;;;;;;5004919;28;20034;-77
2022/11/19 00:40:32;;;;;;;75.38;34.30;;;;;;;;;;5003947;28;20039;-76
2022/11/19 00:45:43;;;;;;;73.30;31.65;;;;;;;;;;5026477;28;20097;-76
2022/11/19 00:48:10;;;;;;;70.15;31.45;;;;;;;;;;5025726;28;20019;-77
2022/11/19 00:50:36;;;;;;;71.47;30.60;;;;;;;;;;5026973;28;20120;-76
2022/11/19 00:53:02;;;;;;;76.55;33.13;;;;;;;;;;5017882;28;20117;-76
2022/11/19 00:55:28;;;;;;;79.65;32.03;;;;;;;;;;5022803;28;20034;-75
2022/11/19 00:57:54;;;;;;;70.78;32.53;;;;;;;;;;5007517;28;20040;-76
2022/11/19 01:00:20;;;;;;;77.03;33.40;;;;;;;;;;5008107;28;20026;-76
2022/11/19 01:02:46;;;;;;;69.80;33.60;;;;;;;;;;5009464;28;20041;-76
2022/11/19 01:05:12;;;;;;;72.10;32.60;;;;;;;;;;5012191;28;20030;-76
2022/11/19 01:07:38;;;;;;;80.60;33.25;;;;;;;;;;5010092;28;20510;-76
2022/11/19 01:10:04;;;;;;;75.45;32.33;;;;;;;;;;4997823;28;20033;-76
2022/11/19 01:13:33;;;;;;;71.57;32.72;;;;;;;;;;4999417;28;20135;-76
2022/11/19 01:15:16;;;;;;;69.38;33.75;;;;;;;;;;5007657;28;20125;-76
2022/11/19 01:17:42;;;;;;;76.47;31.90;;;;;;;;;;5003895;28;20038;-76
2022/11/19 01:20:08;;;;;;;71.50;31.80;;;;;;;;;;5002994;28;20053;-75
2022/11/19 01:22:34;;;;;;;80.32;34.13;;;;;;;;;;5007219;28;20030;-76
2022/11/19 01:25:00;;;;;;;68.55;33.33;;;;;;;;;;4994709;28;20026;-76
2022/11/19 01:27:26;;;;;;;73.70;32.75;;;;;;;;;;5004871;28;20454;-76
2022/11/19 01:29:54;;;;;;;66.05;31.65;;;;;;;;;;4999576;28;20062;-81
2022/11/19 01:32:20;;;;;;;72.88;32.92;;;;;;;;;;5001403;28;20041;-76
2022/11/19 01:34:46;;;;;;;66.82;32.95;;;;;;;;;;5009075;28;20041;-76
2022/11/19 01:37:12;;;;;;;66.88;31.75;;;;;;;;;;5011512;28;20144;-76
2022/11/19 01:39:38;;;;;;;70.30;32.85;;;;;;;;;;5005919;28;20519;-77
2022/11/19 01:42:04;;;;;;;66.68;31.80;;;;;;;;;;5020708;28;20026;-76
2022/11/19 01:44:49;;;;;;;69.55;32.65;;;;;;;;;;5027580;28;20036;-77
2022/11/19 01:47:15;;;;;;;64.88;32.50;;;;;;;;;;5017225;28;20018;-76
2022/11/19 01:49:41;;;;;;;64.97;32.75;;;;;;;;;;5033497;28;20042;-77
2022/11/19 01:52:07;;;;;;;68.25;34.00;;;;;;;;;;5018887;28;20046;-76
2022/11/19 01:54:36;;;;;;;65.53;32.20;;;;;;;;;;5014828;28;20037;-76
2022/11/19 01:57:05;;;;;;;63.10;32.35;;;;;;;;;;5021981;28;20040;-76
2022/11/19 01:59:32;;;;;;;61.75;32.47;;;;;;;;;;5019821;28;20573;-77
2022/11/19 02:01:58;;;;;;;59.67;30.80;;;;;;;;;;5016219;28;20038;-77
2022/11/19 02:04:25;;;;;;;62.85;32.33;;;;;;;;;;5016455;28;20069;-77
2022/11/19 02:06:53;;;;;;;60.17;32.88;;;;;;;;;;5020762;28;20064;-76
2022/11/19 02:09:19;;;;;;;59.10;30.65;;;;;;;;;;5002703;28;20114;-76
2022/11/19 02:12:03;;;;;;;58.60;32.80;;;;;;;;;;4996738;28;20026;-77
2022/11/19 02:14:47;;;;;;;62.78;32.75;;;;;;;;;;4998980;28;20029;-76
2022/11/19 02:17:30;;;;;;;58.10;32.38;;;;;;;;;;5006794;28;20395;-76
2022/11/19 02:20:02;;;;;;;60.92;32.00;;;;;;;;;;4992552;28;20042;-76
2022/11/19 02:22:37;;;;;;;61.20;31.92;;;;;;;;;;4992812;28;20554;-76
2022/11/19 02:25:22;;;;;;;64.47;32.25;;;;;;;;;;5001956;28;20052;-77
2022/11/19 02:28:00;;;;;;;64.25;33.88;;;;;;;;;;5000728;28;20561;-76
2022/11/19 02:30:28;;;;;;;59.15;32.47;;;;;;;;;;4992782;28;20025;-77
2022/11/19 02:33:12;;;;;;;64.40;33.90;;;;;;;;;;5009150;28;20049;-76
2022/11/19 02:35:38;;;;;;;64.25;33.03;;;;;;;;;;5006827;28;20101;-75
2022/11/19 02:38:07;;;;;;;64.68;33.00;;;;;;;;;;5003271;28;20038;-76
2022/11/19 02:40:39;;;;;;;58.28;32.67;;;;;;;;;;5006108;28;20445;-77
2022/11/19 02:43:10;;;;;;;63.55;33.63;;;;;;;;;;5028002;28;20030;-77
2022/11/19 02:45:36;;;;;;;;;;;;;;;;;;5026109;28;20085;-77
2022/11/19 02:48:13;;;;;;;66.47;35.30;;;;;;;;;;5035720;28;19914;-78
2022/11/19 02:50:43;;;;;;;68.75;36.83;;;;;;;;;;5004706;28;20038;-77
2022/11/19 02:53:09;;;;;;;66.80;35.58;;;;;;;;;;5010897;28;20584;-77
2022/11/19 02:55:36;;;;;;;70.90;34.60;;;;;;;;;;5011259;28;20051;-76
2022/11/19 02:58:07;;;;;;;70.00;38.10;;;;;;;;;;5000511;28;20026;-77
2022/11/19 03:06:14;;;;;;;72.43;37.38;;;;;;;;;;5010594;28;20048;-77
2022/11/19 03:08:40;;;;;;;70.72;37.17;;;;;;;;;;5009279;28;20020;-77
2022/11/19 03:11:09;;;;;;;71.10;37.17;;;;;;;;;;4981007;28;20619;-77
2022/11/19 03:16:41;;;;;;;75.78;38.15;;;;;;;;;;4996440;28;20137;-79
2022/11/19 03:19:10;;;;;;;76.40;39.15;;;;;;;;;;4997249;28;20309;-76
2022/11/19 03:21:43;;;;;;;78.53;40.95;;;;;;;;;;4991804;28;20125;-74
2022/11/19 03:24:18;;;;;;;73.82;38.90;;;;;;;;;;4997225;28;20483;-75
2022/11/19 03:27:05;;;;;;;79.78;40.58;;;;;;;;;;5004608;28;20034;-77
2022/11/19 03:29:32;;;;;;;84.90;40.90;;;;;;;;;;5003124;28;20405;-77
2022/11/19 03:32:01;;;;;;;84.82;41.63;;;;;;;;;;5013175;28;20030;-77
2022/11/19 03:34:29;;;;;;;75.45;38.30;;;;;;;;;;5006181;28;20041;-75
2022/11/19 03:36:58;;;;;;;77.15;40.00;;;;;;;;;;5028877;28;20030;-78
2022/11/19 03:39:24;;;;;;;75.88;39.35;;;;;;;;;;5009800;28;20097;-75
2022/11/19 03:41:52;;;;;;;80.55;39.90;;;;;;;;;;5015604;28;20046;-76
2022/11/19 03:44:21;;;;;;;73.47;39.03;;;;;;;;;;5005757;28;20042;-77
2022/11/19 03:46:50;;;;;;;78.65;41.33;;;;;;;;;;5029243;28;20034;-76
2022/11/19 03:49:18;;;;;;;73.53;39.85;;;;;;;;;;5020651;28;20034;-76
2022/11/19 03:51:47;;;;;;;74.85;40.50;;;;;;;;;;5003243;28;20038;-77
2022/11/19 03:54:13;;;;;;;71.85;39.05;;;;;;;;;;5008096;28;20129;-76
2022/11/19 03:56:40;;;;;;;68.80;37.90;;;;;;;;;;4999690;28;20034;-76
2022/11/19 03:59:08;;;;;;;72.70;38.50;;;;;;;;;;4994493;28;20029;-77
2022/11/19 04:01:35;;;;;;;74.00;41.03;;;;;;;;;;5008898;28;20022;-77
2022/11/19 04:06:46;;;;;;;71.72;38.28;;;;;;;;;;5008329;28;20044;-76
2022/11/19 04:09:12;;;;;;;68.28;37.70;;;;;;;;;;5002796;28;20389;-76
2022/11/19 04:11:38;;;;;;;69.75;38.72;;;;;;;;;;5013021;28;20065;-76
2022/11/19 04:14:04;;;;;;;65.57;37.53;;;;;;;;;;5013416;28;20573;-76
2022/11/19 04:16:30;;;;;;;64.93;35.97;;;;;;;;;;5004643;28;20407;-76
2022/11/19 04:18:56;;;;;;;64.45;35.92;;;;;;;;;;5002489;28;20038;-77
2022/11/19 04:21:22;;;;;;;67.82;36.72;;;;;;;;;;5030367;28;20036;-76
2022/11/19 04:23:48;;;;;;;64.20;33.90;;;;;;;;;;5033283;28;20021;-76
2022/11/19 04:26:14;;;;;;;60.97;32.67;;;;;;;;;;5017550;28;20106;-76
2022/11/19 04:28:40;;;;;;;63.47;35.13;;;;;;;;;;5011511;28;20029;-77
2022/11/19 04:31:06;;;;;;;66.55;35.53;;;;;;;;;;5016909;28;20020;-78
2022/11/19 04:33:32;;;;;;;58.88;33.70;;;;;;;;;;5024725;28;20039;-76
2022/11/19 04:35:58;;;;;;;66.07;34.30;;;;;;;;;;5030238;28;20060;-77
2022/11/19 04:38:24;;;;;;;61.25;33.92;;;;;;;;;;5013017;28;20173;-78
2022/11/19 04:40:50;;;;;;;65.13;35.95;;;;;;;;;;5012353;28;20037;-77
2022/11/19 04:43:16;;;;;;;63.75;34.50;;;;;;;;;;5007791;28;20026;-77
2022/11/19 04:45:42;;;;;;;66.20;35.33;;;;;;;;;;5004115;28;20042;-76
2022/11/19 04:48:08;;;;;;;62.03;34.05;;;;;;;;;;5006674;28;20403;-77
2022/11/19 04:50:34;;;;;;;61.08;33.83;;;;;;;;;;5003672;28;20053;-77
2022/11/19 04:53:00;;;;;;;62.03;33.40;;;;;;;;;;5013450;28;20046;-77
2022/11/19 04:55:26;;;;;;;60.10;34.17;;;;;;;;;;5010330;28;20045;-76
2022/11/19 04:57:52;;;;;;;63.78;34.70;;;;;;;;;;5001341;28;20377;-77
2022/11/19 05:00:19;;;;;;;59.53;32.67;;;;;;;;;;5006989;28;20161;-76
2022/11/19 05:02:45;;;;;;;61.67;33.88;;;;;;;;;;5003231;28;20135;-76
2022/11/19 05:05:11;;;;;;;58.03;32.55;;;;;;;;;;5000572;28;20064;-76
2022/11/19 05:07:37;;;;;;;59.60;32.15;;;;;;;;;;5011432;28;20018;-76
2022/11/19 05:10:03;;;;;;;55.70;31.52;;;;;;;;;;5009921;28;20425;-77
2022/11/19 05:12:29;;;;;;;62.10;33.95;;;;;;;;;;5014438;28;20038;-76
2022/11/19 05:14:55;;;;;;;57.70;31.92;;;;;;;;;;5014054;28;20102;-76
2022/11/19 05:17:21;;;;;;;55.58;31.70;;;;;;;;;;5012325;28;20030;-75
2022/11/19 05:19:47;;;;;;;56.92;30.88;;;;;;;;;;5022665;28;20026;-76
2022/11/19 05:22:13;;;;;;;58.80;33.00;;;;;;;;;;5006664;28;20030;-77
2022/11/19 05:24:39;;;;;;;58.85;32.20;;;;;;;;;;5003800;28;20060;-76
2022/11/19 05:27:05;;;;;;;58.60;32.28;;;;;;;;;;5014768;28;20547;-77
2022/11/19 05:29:31;;;;;;;63.70;34.10;;;;;;;;;;5013415;28;20057;-76
2022/11/19 05:31:57;;;;;;;59.40;32.08;;;;;;;;;;5010334;28;20046;-77
2022/11/19 05:34:24;;;;;;;59.67;30.30;;;;;;;;;;5010210;28;20026;-75
2022/11/19 05:36:51;;;;;;;59.78;31.55;;;;;;;;;;5001968;28;20518;-76
2022/11/19 05:39:17;;;;;;;56.33;28.90;;;;;;;;;;4998979;28;20549;-75
2022/11/19 05:41:43;;;;;;;59.67;30.38;;;;;;;;;;4997406;28;20080;-76
2022/11/19 05:44:09;;;;;;;54.58;29.83;;;;;;;;;;5010904;28;20037;-76
2022/11/19 05:46:35;;;;;;;55.13;30.35;;;;;;;;;;5020472;28;20026;-76
2022/11/19 05:49:01;;;;;;;57.92;30.77;;;;;;;;;;5002179;28;20038;-76
2022/11/19 05:51:27;;;;;;;62.17;31.00;;;;;;;;;;5003354;28;20036;-76
2022/11/19 05:53:53;;;;;;;61.03;30.75;;;;;;;;;;5006261;28;20051;-75
2022/11/19 05:56:19;;;;;;;59.10;32.53;;;;;;;;;;5000080;28;20026;-75
2022/11/19 05:58:45;;;;;;;57.92;31.05;;;;;;;;;;5029158;28;20052;-74
2022/11/19 06:01:11;;;;;;;67.57;31.63;;;;;;;;;;5001739;28;20061;-75
2022/11/19 06:03:37;;;;;;;50.97;29.05;;;;;;;;;;5010041;28;20049;-74
2022/11/19 06:06:03;;;;;;;53.50;29.42;;;;;;;;;;5004916;28;20033;-74
2022/11/19 06:08:29;;;;;;;55.42;30.65;;;;;;;;;;5007120;28;20038;-76
2022/11/19 06:10:55;;;;;;;55.60;30.30;;;;;;;;;;5036259;28;20097;-77
2022/11/19 06:13:21;;;;;;;57.03;30.77;;;;;;;;;;5028950;28;20058;-76
2022/11/19 06:15:47;;;;;;;53.75;28.33;;;;;;;;;;5027140;28;20038;-76
2022/11/19 06:18:13;;;;;;;58.70;31.23;;;;;;;;;;5015309;28;20093;-75
2022/11/19 06:20:39;;;;;;;56.95;31.15;;;;;;;;;;5015800;28;20018;-76
2022/11/19 06:23:05;;;;;;;58.15;31.60;;;;;;;;;;5010935;28;20030;-76
2022/11/19 06:25:31;;;;;;;54.55;29.25;;;;;;;;;;5015748;28;20038;-76
2022/11/19 06:27:57;;;;;;;56.90;31.02;;;;;;;;;;5001807;28;20041;-76
2022/11/19 06:30:23;;;;;;;58.47;31.92;;;;;;;;;;5000508;28;20026;-76
2022/11/19 06:32:49;;;;;;;52.10;29.38;;;;;;;;;;5017607;28;20460;-76
2022/11/19 06:35:15;;;;;;;55.78;30.23;;;;;;;;;;4987576;28;20499;-76
2022/11/19 06:37:41;;;;;;;50.20;28.00;;;;;;;;;;4994332;28;20062;-75
2022/11/19 06:40:07;;;;;;;56.95;30.13;;;;;;;;;;5010335;28;20037;-76
2022/11/19 06:42:36;;;;;;;51.20;29.17;;;;;;;;;;5006274;28;20113;-76
2022/11/19 06:45:07;;;;;;;53.70;28.80;;;;;;;;;;5009891;28;20030;-76
2022/11/19 06:47:33;;;;;;;53.95;29.20;;;;;;;;;;5003236;28;20444;-76
2022/11/19 06:49:59;;;;;;;59.30;30.80;;;;;;;;;;4993463;28;20053;-77
2022/11/19 06:52:25;;;;;;;58.03;31.75;;;;;;;;;;5003725;28;20042;-76
2022/11/19 06:54:51;;;;;;;50.92;28.80;;;;;;;;;;5005476;28;20069;-76
2022/11/19 06:57:17;;;;;;;57.88;30.48;;;;;;;;;;5002677;28;20247;-74
2022/11/19 06:59:44;;;;;;;51.80;27.42;;;;;;;;;;4993369;28;20438;-77
2022/11/19 07:02:11;;;;;;;55.53;29.98;;;;;;;;;;5000952;28;20060;-76
2022/11/19 07:04:37;;;;;;;54.88;28.88;;;;;;;;;;5000969;28;20041;-76
2022/11/19 07:07:03;;;;;;;54.20;28.67;;;;;;;;;;5004790;28;20124;-77
2022/11/19 07:09:29;;;;;;;58.17;30.17;;;;;;;;;;5009697;28;20046;-76
2022/11/19 07:11:55;;;;;;;51.55;28.55;;;;;;;;;;5002539;28;20475;-77
2022/11/19 07:14:21;;;;;;;66.03;30.00;;;;;;;;;;5007596;28;20065;-76
2022/11/19 07:16:47;;;;;;;55.78;29.10;;;;;;;;;;5011350;28;20037;-76
2022/11/19 07:19:13;;;;;;;53.28;28.33;;;;;;;;;;5020124;28;20088;-77
2022/11/19 07:21:39;;;;;;;55.17;29.27;;;;;;;;;;5017507;28;20128;-75
2022/11/19 07:24:06;;;;;;;55.42;28.02;;;;;;;;;;5017572;28;20091;-76
2022/11/19 07:26:33;;;;;;;56.90;29.05;;;;;;;;;;5027370;28;20074;-75
2022/11/19 07:29:00;;;;;;;60.90;30.08;;;;;;;;;;5021157;28;20555;-77
2022/11/19 07:31:27;;;;;;;57.85;29.70;;;;;;;;;;5022119;28;20033;-76
2022/11/19 07:33:53;;;;;;;52.33;28.67;;;;;;;;;;5015751;28;20019;-76
2022/11/19 07:36:19;;;;;;;56.20;28.75;;;;;;;;;;5040204;28;20082;-77
2022/11/19 07:38:46;;;;;;;59.40;30.00;;;;;;;;;;5015638;28;20034;-75
2022/11/19 07:43:57;;;;;;;56.33;29.40;;;;;;;;;;5006598;28;20092;-75
2022/11/19 07:46:23;;;;;;;52.70;28.00;;;;;;;;;;4999703;28;20034;-75
2022/11/19 07:48:53;;;;;;;53.22;29.00;;;;;;;;;;5009409;28;20026;-76
2022/11/19 07:51:19;;;;;;;58.40;30.08;;;;;;;;;;5010880;28;20096;-76
2022/11/19 07:53:46;;;;;;;56.05;29.63;;;;;;;;;;5002344;28;20046;-76
2022/11/19 07:56:12;;;;;;;56.05;30.25;;;;;;;;;;5006580;28;20029;-75
2022/11/19 07:58:38;;;;;;;53.38;28.42;;;;;;;;;;5005314;28;20105;-76
2022/11/19 08:01:10;;;;;;;52.42;27.67;;;;;;;;;;5003946;28;20496;-76
2022/11/19 08:03:36;;;;;;;49.92;27.08;;;;;;;;;;5000039;28;20018;-76
2022/11/19 08:06:03;;;;;;;50.72;27.90;;;;;;;;;;5015487;28;20118;-76
2022/11/19 08:08:29;;;;;;;52.28;27.40;;;;;;;;;;5009170;28;20530;-75
2022/11/19 08:10:55;;;;;;;49.22;27.33;;;;;;;;;;5006328;28;20033;-75
2022/11/19 08:13:21;;;;;;;52.15;28.02;;;;;;;;;;4995794;28;20035;-76
2022/11/19 08:15:48;;;;;;;48.95;25.77;;;;;;;;;;5004580;28;20499;-76
2022/11/19 08:18:17;;;;;;;51.63;28.08;;;;;;;;;;5009660;28;20033;-75
2022/11/19 08:20:43;;;;;;;47.30;26.40;;;;;;;;;;5000070;28;20112;-76
2022/11/19 08:23:10;;;;;;;54.42;28.35;;;;;;;;;;4993215;28;20034;-76
2022/11/19 08:25:36;;;;;;;54.22;28.13;;;;;;;;;;5000772;28;20060;-76
2022/11/19 08:28:02;;;;;;;49.25;26.35;;;;;;;;;;5001940;28;20097;-76
2022/11/19 08:30:29;;;;;;;54.42;28.90;;;;;;;;;;5000762;28;20030;-75
2022/11/19 08:32:55;;;;;;;50.65;27.95;;;;;;;;;;4993857;28;20113;-75
2022/11/19 08:35:21;;;;;;;49.92;27.75;;;;;;;;;;5005368;28;20121;-75
2022/11/19 08:37:47;;;;;;;51.05;27.92;;;;;;;;;;5008332;28;20116;-76
2022/11/19 08:40:14;;;;;;;53.25;27.20;;;;;;;;;;5007784;28;20038;-75
2022/11/19 08:42:58;;;;;;;54.50;28.50;;;;;;;;;;4999250;28;20034;-76
2022/11/19 08:45:25;;;;;;;54.13;28.75;;;;;;;;;;5004497;28;20052;-75
2022/11/19 08:47:52;;;;;;;52.80;26.95;;;;;;;;;;5005933;28;20042;-74
2022/11/19 08:50:18;;;;;;;50.63;26.95;;;;;;;;;;5019628;28;20031;-74
2022/11/19 08:52:44;;;;;;;56.10;28.90;;;;;;;;;;5010100;28;20037;-75
2022/11/19 08:55:13;;;;;;;54.60;28.52;;;;;;;;;;5018550;28;20137;-75
2022/11/19 08:57:39;;;;;;;52.80;27.58;;;;;;;;;;4981762;28;20058;-75
2022/11/19 09:00:05;;;;;;;54.70;28.65;;;;;;;;;;4997259;28;20057;-75
2022/11/19 09:02:32;;;;;;;53.25;25.25;;;;;;;;;;4993009;28;20031;-75
2022/11/19 09:04:58;;;;;;;54.33;28.50;;;;;;;;;;4991767;28;20573;-76
2022/11/19 09:07:24;;;;;;;55.53;27.00;;;;;;;;;;5006268;28;20465;-75
2022/11/19 09:09:50;;;;;;;50.97;27.48;;;;;;;;;;5000790;28;20371;-77
2022/11/19 09:12:16;;;;;;;49.92;27.08;;;;;;;;;;5002937;28;20038;-76
2022/11/19 09:14:42;;;;;;;51.53;26.20;;;;;;;;;;5009686;28;20038;-76
2022/11/19 09:17:08;;;;;;;48.53;25.55;;;;;;;;;;5010920;28;20042;-75
2022/11/19 09:19:34;;;;;;;48.88;26.55;;;;;;;;;;5011602;28;20031;-75
2022/11/19 09:22:00;;;;;;;44.95;25.25;;;;;;;;;;5022046;28;20037;-76
2022/11/19 09:24:26;;;;;;;48.67;26.30;;;;;;;;;;5011677;28;20302;-74
2022/11/19 09:26:52;;;;;;;48.72;25.30;;;;;;;;;;5010330;28;20034;-75
2022/11/19 09:29:18;;;;;;;43.13;24.75;;;;;;;;;;5019194;28;20097;-74
2022/11/19 09:31:44;;;;;;;45.30;23.08;;;;;;;;;;5023143;28;20073;-74
2022/11/19 09:34:10;;;;;;;45.80;24.33;;;;;;;;;;5024270;28;20094;-73
2022/11/19 09:36:36;;;;;;;47.75;24.17;;;;;;;;;;5017765;28;20050;-73
2022/11/19 09:39:03;;;;;;;45.33;24.90;;;;;;;;;;5010234;28;20121;-73
2022/11/19 09:41:34;;;;;;;44.55;25.10;;;;;;;;;;5002946;28;20049;-74
2022/11/19 09:44:01;;;;;;;44.92;23.15;;;;;;;;;;5002251;28;20090;-73
2022/11/19 09:46:34;;;;;;;48.83;24.90;;;;;;;;;;5007320;28;20495;-74
2022/11/19 09:49:04;;;;;;;45.20;24.80;;;;;;;;;;5002345;28;20117;-75
2022/11/19 09:51:31;;;;;;;45.60;23.98;;;;;;;;;;5001616;28;20156;-74
2022/11/19 09:54:05;;;;;;;43.10;22.98;;;;;;;;;;5006119;28;20054;-75
2022/11/19 09:56:39;;;;;;;38.38;21.45;;;;;;;;;;5002048;28;21647;-75
2022/11/19 09:59:24;;;;;;;40.17;22.88;;;;;;;;;;5002197;28;20030;-74
2022/11/19 10:01:50;;;;;;;39.00;21.70;;;;;;;;;;5002682;28;20060;-74
2022/11/19 10:04:18;;;;;;;42.97;22.67;;;;;;;;;;5003708;28;20452;-74
2022/11/19 10:06:48;;;;;;;43.55;23.48;;;;;;;;;;4999260;28;20149;-75
2022/11/19 10:09:33;;;;;;;43.83;23.30;;;;;;;;;;5002972;28;20088;-76
2022/11/19 10:12:24;;;;;;;39.50;21.10;;;;;;;;;;4998303;28;20045;-75
2022/11/19 10:15:09;;;;;;;39.88;21.92;;;;;;;;;;5000788;28;20050;-76
2022/11/19 10:17:49;;;;;;;35.47;20.45;;;;;;;;;;5006673;28;20463;-76
2022/11/19 10:20:42;;;;;;;37.35;20.38;;;;;;;;;;4997104;28;20061;-75
2022/11/19 10:23:18;;;;;;;38.47;20.45;;;;;;;;;;4965767;28;20046;-75
2022/11/19 10:25:48;;;;;;;38.22;21.55;;;;;;;;;;5002148;28;20041;-78
2022/11/19 10:28:19;;;;;;;33.90;17.02;;;;;;;;;;4995807;28;20035;-75
2022/11/19 10:30:50;;;;;;;36.88;18.85;;;;;;;;;;5000580;28;20034;-75
2022/11/19 10:33:21;;;;;;;35.22;20.38;;;;;;;;;;4997332;28;20026;-75
2022/11/19 10:35:58;;;;;;;32.17;18.92;;;;;;;;;;4996897;28;20122;-74
2022/11/19 10:38:27;;;;;;;33.15;19.60;;;;;;;;;;4998051;28;20026;-74
2022/11/19 10:40:57;;;;;;;33.50;19.20;;;;;;;;;;4998240;28;20061;-75
2022/11/19 10:43:58;;;;;;;31.35;18.00;;;;;;;;;;5008469;28;20018;-75
2022/11/19 10:46:25;;;;;;;36.20;19.42;;;;;;;;;;4953571;29;20031;-75
2022/11/19 10:48:55;;;;;;;35.42;18.33;;;;;;;;;;4993537;28;20049;-75
2022/11/19 10:51:23;;;;;;;32.90;19.17;;;;;;;;;;5008346;28;20030;-75
2022/11/19 10:53:50;;;;;;;30.85;18.30;;;;;;;;;;5010756;28;20042;-75
2022/11/19 10:56:24;;;;;;;39.90;19.70;;;;;;;;;;5010750;28;20026;-76
2022/11/19 10:58:56;;;;;;;32.05;18.35;;;;;;;;;;5017176;28;20038;-75
2022/11/19 11:01:26;;;;;;;36.70;18.90;;;;;;;;;;5013446;28;20044;-75
2022/11/19 11:03:57;;;;;;;28.20;16.55;;;;;;;;;;5018285;28;20025;-73
2022/11/19 11:06:23;;;;;;;32.30;17.67;;;;;;;;;;5024264;28;20086;-75
2022/11/19 11:08:53;;;;;;;32.00;17.55;;;;;;;;;;5016115;28;20042;-74
2022/11/19 11:16:57;;;;;;;30.67;17.13;;;;;;;;;;5006760;28;20085;-75
2022/11/19 11:19:23;;;;;;;31.25;17.20;;;;;;;;;;4995734;28;20031;-75
2022/11/19 11:21:54;;;;;;;27.50;16.83;;;;;;;;;;5000991;28;20034;-74
2022/11/19 11:24:20;;;;;;;25.92;15.60;;;;;;;;;;4999126;28;20034;-75
2022/11/19 11:26:46;;;;;;;28.00;16.15;;;;;;;;;;4994863;28;20582;-75
2022/11/19 11:29:12;;;;;;;31.05;16.63;;;;;;;;;;4999433;28;20038;-74
2022/11/19 11:31:38;;;;;;;26.17;16.83;;;;;;;;;;4991103;28;20042;-75
2022/11/19 11:34:05;;;;;;;28.90;16.95;;;;;;;;;;4999612;28;20052;-75
2022/11/19 11:36:33;;;;;;;26.90;15.95;;;;;;;;;;4998572;28;20038;-75
2022/11/19 11:39:00;;;;;;;27.95;16.35;;;;;;;;;;4998462;28;20101;-75
2022/11/19 11:41:39;;;;;;;26.52;15.70;;;;;;;;;;5011400;28;20041;-75
2022/11/19 11:44:07;;;;;;;24.98;15.55;;;;;;;;;;4992386;28;20022;-75
2022/11/19 11:46:36;;;;;;;26.00;15.02;;;;;;;;;;5000368;28;20053;-75
2022/11/19 11:49:03;;;;;;;28.65;16.48;;;;;;;;;;5003227;28;20049;-75
2022/11/19 11:51:34;;;;;;;24.25;14.60;;;;;;;;;;4992578;28;20112;-75
2022/11/19 11:54:04;;;;;;;23.45;14.18;;;;;;;;;;4999063;28;20056;-75
2022/11/19 11:56:30;;;;;;;23.48;14.10;;;;;;;;;;4994974;28;20026;-75
2022/11/19 11:59:12;;;;;;;24.02;15.05;;;;;;;;;;4997108;28;20038;-76
2022/11/19 12:01:40;;;;;;;27.50;14.90;;;;;;;;;;5008020;28;20029;-75
2022/11/19 12:04:11;;;;;;;23.35;13.98;;;;;;;;;;5000715;28;20116;-75
2022/11/19 12:06:42;;;;;;;23.88;14.25;;;;;;;;;;5002136;28;20084;-74
2022/11/19 12:09:08;;;;;;;21.45;14.25;;;;;;;;;;5006145;28;20022;-76
2022/11/19 12:14:22;;;;;;;26.98;13.82;;;;;;;;;;5003049;28;20081;-73
2022/11/19 12:17:00;;;;;;;21.33;13.05;;;;;;;;;;5002719;28;20038;-75
2022/11/19 12:19:35;;;;;;;20.60;13.40;;;;;;;;;;5007472;28;20006;-74
2022/11/19 12:22:20;;;;;;;21.02;12.98;;;;;;;;;;5017539;28;20094;-74
2022/11/19 12:24:46;;;;;;;18.23;12.13;;;;;;;;;;5023729;28;20021;-74
2022/11/19 12:27:24;;;;;;;23.08;13.88;;;;;;;;;;5024928;28;20026;-74
2022/11/19 12:29:54;;;;;;;20.23;12.88;;;;;;;;;;5019662;28;20030;-75
2022/11/19 12:32:27;;;;;;;21.17;13.77;;;;;;;;;;5016039;28;20033;-74
2022/11/19 12:34:53;;;;;;;19.20;13.10;;;;;;;;;;5013504;28;20042;-75
2022/11/19 12:37:37;;;;;;;19.50;12.73;;;;;;;;;;5006768;28;21488;-74
2022/11/19 12:40:11;;;;;;;20.60;13.60;;;;;;;;;;5004917;28;20022;-74
2022/11/19 12:42:37;;;;;;;21.73;13.43;;;;;;;;;;5002263;28;20030;-75
2022/11/19 12:45:12;;;;;;;21.10;13.60;;;;;;;;;;5004523;28;20105;-75
2022/11/19 12:47:44;;;;;;;19.00;11.82;;;;;;;;;;5005032;28;20088;-74
2022/11/19 12:50:19;;;;;;;18.45;12.82;;;;;;;;;;5014693;28;20113;-75
2022/11/19 12:52:51;;;;;;;18.98;12.80;;;;;;;;;;5003037;28;20029;-74
2022/11/19 12:55:23;;;;;;;20.65;12.40;;;;;;;;;;5005208;28;20356;-74
2022/11/19 12:58:03;;;;;;;17.95;11.95;;;;;;;;;;5002845;28;20034;-74
2022/11/19 13:00:29;;;;;;;16.95;11.35;;;;;;;;;;5000019;28;20093;-74
2022/11/19 13:02:55;;;;;;;17.00;11.25;;;;;;;;;;4996272;28;20032;-73
2022/11/19 13:05:24;;;;;;;17.60;12.10;;;;;;;;;;4997577;28;20417;-74
2022/11/19 13:07:56;;;;;;;16.75;11.30;;;;;;;;;;4999378;28;20069;-75
2022/11/19 13:10:24;;;;;;;17.42;11.88;;;;;;;;;;4999050;28;20496;-74
2022/11/19 13:12:52;;;;;;;16.98;10.85;;;;;;;;;;4999973;28;20034;-74
2022/11/19 13:15:19;;;;;;;16.15;10.00;;;;;;;;;;4999206;28;20056;-75
2022/11/19 13:17:47;;;;;;;15.35;10.13;;;;;;;;;;4996501;28;20034;-74
2022/11/19 13:20:23;;;;;;;17.67;10.57;;;;;;;;;;5004303;28;20454;-74
2022/11/19 13:22:51;;;;;;;18.48;10.15;;;;;;;;;;5002157;28;20481;-74
2022/11/19 13:25:35;;;;;;;15.00;9.98;;;;;;;;;;5006643;28;20061;-75
2022/11/19 13:28:03;;;;;;;16.83;10.38;;;;;;;;;;5000530;28;20039;-75
2022/11/19 13:30:32;;;;;;;15.48;9.25;;;;;;;;;;5004331;28;20050;-75
2022/11/19 13:32:58;;;;;;;14.52;9.73;;;;;;;;;;5011347;28;20011;-75
2022/11/19 13:35:38;;;;;;;12.90;8.27;;;;;;;;;;5013659;28;20041;-74
2022/11/19 13:38:07;;;;;;;13.65;8.98;;;;;;;;;;5012372;28;20027;-74
2022/11/19 13:40:36;;;;;;;14.88;9.23;;;;;;;;;;5019795;28;20046;-74
2022/11/19 13:45:52;;;;;;;21.00;8.98;;;;;;;;;;5012832;28;20089;-74
2022/11/19 13:48:26;;;;;;;15.20;9.15;;;;;;;;;;5002821;28;20038;-75
2022/11/19 13:50:55;;;;;;;16.70;8.77;;;;;;;;;;5011945;28;20030;-77
2022/11/19 13:53:21;;;;;;;12.20;8.25;;;;;;;;;;5014948;28;20041;-76
2022/11/19 13:55:50;;;;;;;14.38;8.80;;;;;;;;;;5016958;28;20034;-75
2022/11/19 13:58:16;;;;;;;15.38;8.75;;;;;;;;;;5013821;28;20159;-74
2022/11/19 14:00:50;;;;;;;12.70;8.93;;;;;;;;;;5014557;28;20076;-75
2022/11/19 14:03:17;;;;;;;13.15;8.75;;;;;;;;;;5013252;28;20022;-75
2022/11/19 14:05:49;;;;;;;12.55;8.60;;;;;;;;;;5009247;28;20032;-75
2022/11/19 14:08:27;;;;;;;13.35;8.45;;;;;;;;;;5003292;28;20035;-76
2022/11/19 14:11:02;;;;;;;12.27;8.30;;;;;;;;;;4993371;28;20037;-76
2022/11/19 14:13:28;;;;;;;12.45;8.05;;;;;;;;;;4993462;28;20034;-76
2022/11/19 14:27:18;;;;;;;18.00;12.55;;;;;;;;;;5017945;28;20544;-75
2022/11/19 14:29:44;;;;;;;30.85;20.73;;;;;;;;;;5015778;28;20033;-75
2022/11/19 14:32:10;;;;;;;14.07;9.57;;;;;;;;;;5013784;28;20160;-76
2022/11/19 14:34:39;;;;;;;13.68;9.20;;;;;;;;;;4998162;28;20034;-75
2022/11/19 14:37:24;;;;;;;14.82;10.07;;;;;;;;;;4993375;28;20037;-75
2022/11/19 14:39:55;;;;;;;15.00;10.35;;;;;;;;;;4992615;28;20095;-75
2022/11/19 14:42:21;;;;;;;21.55;16.02;;;;;;;;;;5001053;28;20034;-76
2022/11/19 14:45:07;;;;;;;13.13;8.80;;;;;;;;;;5002768;28;20492;-76
2022/11/19 14:47:33;;;;;;;11.85;8.15;;;;;;;;;;4997619;28;20038;-74
2022/11/19 14:50:03;;;;;;;17.88;7.97;;;;;;;;;;5005696;28;20109;-73
2022/11/19 14:52:30;;;;;;;14.27;9.65;;;;;;;;;;4993152;28;20046;-73
2022/11/19 14:55:16;;;;;;;13.43;8.43;;;;;;;;;;5001629;28;20054;-74
2022/11/19 14:57:43;;;;;;;19.20;11.25;;;;;;;;;;5004804;28;20053;-74
2022/11/19 15:00:16;;;;;;;26.23;14.95;;;;;;;;;;4995986;28;20037;-74
2022/11/19 15:02:44;;;;;;;16.80;8.75;;;;;;;;;;4995120;28;20030;-75
2022/11/19 15:05:26;;;;;;;13.32;7.50;;;;;;;;;;5004280;28;20030;-75
2022/11/19 15:08:11;;;;;;;14.35;9.20;;;;;;;;;;5007253;28;20630;-75